Allendale, California
Current Conditions -  °F | °C
As of 2:53 PM on Wednesday 17 Dec 2014 (Local Time) from KVCB Reporting Station
Scattered Clouds Scattered Clouds  
Wind Chill: 57°   Ceiling: Unl
Heat Index: 57°   Visibility: 10mi
Dew Point: 46°   Wind: 8mph
Humidity: 67%   Direction: 230°SW
Pressure: 30.02"   Gusts: NA
Location:  38.4195°N, 122.026°W
Report Text: KVCB 172253Z AUTO 23007KT 10SM SCT110 14/08 A3002 RMK AO2 SLP166 T01390078 TSNO
Loading
Personal Weather Stations






























Interactive Weather Map New forecast layout! Learn more

10-Day Weather Forecast

Advertisements
Track Severe Weather on mobile